Portada
METAR-TAF:

METAR-TAF

Aeroports :

Illa de Saint Thomas, Illes Verges Nord-americanes

latitud: 18-20N, longitud: 064-59W, altitud: 7 m

Observació

L'informe es va fer fa 25 minuts, a les 21:53 UTC
Vent 10 kt del Sud-Est
Temperatura 28°C
Humitat 70%
Pressió 1015 hPa
Visibilitat: 16.1 km
Cel clar

METAR: TIST 272153Z 13010KT 10SM CLR 28/22 A2997 RMK AO2 SLP148 T02830222

Hora: 18:18 (22:18 UTC)

Pronòstic

L'informe es va fer fa 4 hores i 42 minuts, a les 17:36 UTC
Pronòstic vàlid del 27 a les 18 UTC al 28 a les 18 UTC
Vent 11 kt del Sud-Est
Visibilitat: 10 km
Escasses núvols a una alçada de 2800 ft
A partir de les 27 a les 2300 UTC
Vent 4 kt amb direcció variable
Visibilitat: 10 km
Núvols disperses a una alçada de 3000 ft
A partir de les 28 a les 1400 UTC
Vent 10 kt del Sud/Sud-Est
Visibilitat: 10 km
Escasses núvols a una alçada de 3500 ft

TAF: TIST 271736Z 2718/2818 14011KT P6SM FEW028 FM272300 VRB04KT P6SM SCT030 FM281400 15010KT P6SM FEW035

Observacions i pronòstics meteorològics de més de 4000 aeroports (METAR i TAF).

Les estacions disponibles són els punts grocs i vermells al mapa.

Posi el ratolí al punt desitjat per veure el nom de l'estació.

Feu clic per veure les observacions i els pronòstics meteorològics.

Per canviar el mapa: feu clic els botons verds amb una creu de color negre per apropar; al botó verd amb un guió per allunyar la imatge; o en les fletxes verdes per a mapes adjacents.


METAR-TAF: